createdAt,value
2018-09-20T00:02:17.389Z,92.60
2018-09-20T00:04:45.329Z,93.00
2018-09-20T00:07:13.345Z,93.00
2018-09-20T00:09:41.397Z,93.50
2018-09-20T00:12:10.322Z,93.30
2018-09-20T00:14:38.309Z,93.70
2018-09-20T00:17:06.610Z,94.10
2018-09-20T00:19:34.732Z,94.10
2018-09-20T00:22:03.469Z,94.20
2018-09-20T00:24:31.402Z,93.90
2018-09-20T00:27:00.387Z,93.50
2018-09-20T00:29:28.421Z,93.40
2018-09-20T00:31:56.350Z,93.30
2018-09-20T00:34:24.445Z,93.80
2018-09-20T00:36:52.417Z,94.20
2018-09-20T00:39:20.439Z,94.00
2018-09-20T00:41:48.467Z,94.20
2018-09-20T00:44:16.436Z,94.40
2018-09-20T00:46:44.575Z,94.60
2018-09-20T00:49:13.292Z,94.60
2018-09-20T00:51:41.373Z,94.80
2018-09-20T00:54:09.477Z,94.60
2018-09-20T00:56:37.493Z,94.20
2018-09-20T00:59:05.986Z,94.00
2018-09-20T01:01:33.996Z,93.90
2018-09-20T01:04:02.030Z,93.80
2018-09-20T01:06:29.978Z,93.90
2018-09-20T01:08:57.948Z,94.00
2018-09-20T01:11:26.037Z,94.20
2018-09-20T01:13:54.097Z,93.80
2018-09-20T01:16:22.357Z,94.00
2018-09-20T01:18:50.866Z,93.50
2018-09-20T01:21:18.955Z,93.90
2018-09-20T01:23:46.996Z,94.20
2018-09-20T01:26:15.027Z,93.70
2018-09-20T01:28:43.110Z,94.50
2018-09-20T01:31:11.151Z,94.80
2018-09-20T01:33:39.169Z,93.90
2018-09-20T01:36:07.193Z,94.50
2018-09-20T01:38:35.197Z,94.80
2018-09-20T01:41:03.240Z,94.80
2018-09-20T01:43:31.335Z,94.80
2018-09-20T01:45:59.410Z,95.10
2018-09-20T01:48:27.386Z,94.90
2018-09-20T01:50:55.329Z,94.50
2018-09-20T01:53:23.309Z,94.50
2018-09-20T01:55:51.301Z,95.30
2018-09-20T01:58:19.369Z,94.50
2018-09-20T02:00:48.329Z,94.50
2018-09-20T02:03:16.313Z,94.90
2018-09-20T02:05:44.409Z,95.10
2018-09-20T02:08:12.418Z,94.90
2018-09-20T02:10:47.105Z,95.00
2018-09-20T02:13:15.069Z,94.00
2018-09-20T02:15:43.030Z,94.70
2018-09-20T02:18:12.062Z,93.30
2018-09-20T02:20:40.050Z,92.80
2018-09-20T02:23:08.144Z,93.10
2018-09-20T02:25:36.112Z,94.10
2018-09-20T02:28:04.089Z,94.60
2018-09-20T02:30:32.107Z,93.30
2018-09-20T02:33:00.114Z,92.60
2018-09-20T02:35:28.130Z,92.50
2018-09-20T02:37:56.291Z,92.90
2018-09-20T02:40:25.963Z,93.30
2018-09-20T02:42:54.029Z,93.40
2018-09-20T02:45:22.081Z,93.10
2018-09-20T02:47:50.212Z,93.10
2018-09-20T02:50:18.240Z,93.60
2018-09-20T02:52:46.264Z,94.00
2018-09-20T02:55:14.913Z,94.20
2018-09-20T02:57:42.857Z,94.20
2018-09-20T03:00:10.949Z,94.10
2018-09-20T03:02:39.023Z,94.20
2018-09-20T03:05:07.204Z,93.90
2018-09-20T03:07:35.294Z,93.90
2018-09-20T03:10:03.494Z,94.10
2018-09-20T03:12:31.479Z,94.10
2018-09-20T03:14:59.840Z,94.10
2018-09-20T03:17:27.821Z,94.10
2018-09-20T03:19:55.750Z,94.10
2018-09-20T03:22:24.873Z,94.20
2018-09-20T03:24:53.033Z,94.10
2018-09-20T03:27:21.140Z,94.20
2018-09-20T03:29:49.154Z,94.00
2018-09-20T03:32:17.221Z,93.90
2018-09-20T03:34:45.217Z,93.40
2018-09-20T03:37:13.210Z,93.50
2018-09-20T03:39:41.308Z,94.20
2018-09-20T03:42:09.449Z,94.40
2018-09-20T03:44:37.521Z,94.80
2018-09-20T03:47:05.567Z,95.40
2018-09-20T03:49:33.617Z,95.30
2018-09-20T03:52:01.787Z,95.70
2018-09-20T03:54:30.444Z,94.50
2018-09-20T03:56:58.469Z,94.30
2018-09-20T03:59:26.514Z,95.20
2018-09-20T04:01:54.553Z,95.40
2018-09-20T04:04:22.633Z,95.40
2018-09-20T04:06:50.609Z,95.40
2018-09-20T04:09:18.605Z,94.40
2018-09-20T04:11:46.735Z,94.50
2018-09-20T04:14:15.304Z,94.50
2018-09-20T04:16:43.472Z,94.80
2018-09-20T04:19:11.473Z,94.90
2018-09-20T04:21:39.457Z,95.10
2018-09-20T04:24:07.409Z,95.20
2018-09-20T04:26:35.450Z,95.00
2018-09-20T04:29:03.523Z,95.10
2018-09-20T04:31:31.775Z,95.10
2018-09-20T04:34:01.562Z,94.40
2018-09-20T04:36:30.246Z,94.60
2018-09-20T04:38:58.428Z,94.90
2018-09-20T04:41:26.469Z,94.90
2018-09-20T04:43:54.714Z,95.10
2018-09-20T04:46:22.882Z,95.50
2018-09-20T04:48:51.334Z,95.60
2018-09-20T04:51:19.398Z,95.60
2018-09-20T04:53:47.572Z,95.50
2018-09-20T04:56:15.533Z,95.40
2018-09-20T04:58:43.908Z,95.30
2018-09-20T05:01:11.932Z,95.20
2018-09-20T05:03:39.892Z,95.40
2018-09-20T05:06:07.978Z,95.20
2018-09-20T05:08:36.033Z,95.30
2018-09-20T05:11:05.035Z,95.40
2018-09-20T05:13:33.073Z,95.30
2018-09-20T05:16:30.515Z,95.30
2018-09-20T05:18:58.482Z,95.20
2018-09-20T05:21:26.559Z,95.20
2018-09-20T05:23:54.759Z,95.50
2018-09-20T05:26:22.770Z,95.60
2018-09-20T05:28:51.406Z,95.70
2018-09-20T05:31:19.946Z,95.90
2018-09-20T05:33:48.121Z,96.00
2018-09-20T05:36:16.228Z,95.90
2018-09-20T05:38:44.301Z,95.90
2018-09-20T05:41:12.265Z,96.40
2018-09-20T05:43:40.383Z,96.40
2018-09-20T05:46:08.393Z,96.00
2018-09-20T05:48:36.341Z,96.00
2018-09-20T05:51:04.302Z,95.90
2018-09-20T05:53:32.382Z,95.90
2018-09-20T05:56:00.793Z,95.70
2018-09-20T05:58:28.887Z,96.30
2018-09-20T06:00:56.993Z,96.60
2018-09-20T06:03:25.953Z,96.40
2018-09-20T06:05:54.010Z,95.30
2018-09-20T06:08:22.089Z,95.80
2018-09-20T06:10:50.168Z,94.40
2018-09-20T06:13:18.872Z,94.00
2018-09-20T06:15:46.827Z,94.60
2018-09-20T06:18:14.824Z,94.70
2018-09-20T06:20:42.859Z,93.60
2018-09-20T06:23:11.632Z,92.90
2018-09-20T06:25:39.620Z,92.80
2018-09-20T06:28:07.657Z,92.60
2018-09-20T06:30:35.640Z,93.20
2018-09-20T06:33:03.702Z,93.40
2018-09-20T06:35:32.257Z,92.70
2018-09-20T06:38:00.254Z,93.00
2018-09-20T06:40:28.331Z,92.70
2018-09-20T06:42:56.307Z,93.10
2018-09-20T06:45:24.316Z,93.50
2018-09-20T06:47:52.290Z,92.70
2018-09-20T06:50:20.421Z,93.00
2018-09-20T06:52:48.385Z,92.60
2018-09-20T06:55:16.439Z,92.90
2018-09-20T06:57:44.452Z,92.90
2018-09-20T07:00:12.554Z,92.40
2018-09-20T07:02:40.617Z,92.40
2018-09-20T07:05:08.596Z,92.10
2018-09-20T07:07:36.571Z,92.40
2018-09-20T07:10:04.652Z,92.60
2018-09-20T07:12:32.624Z,92.00
2018-09-20T07:15:00.670Z,92.40
2018-09-20T07:17:28.622Z,92.40
2018-09-20T07:19:56.688Z,92.60
2018-09-20T07:22:24.702Z,93.00
2018-09-20T07:24:52.701Z,92.70
2018-09-20T07:27:20.747Z,92.90
2018-09-20T07:29:48.944Z,93.10
2018-09-20T07:32:17.020Z,92.00
2018-09-20T07:34:44.953Z,93.10
2018-09-20T07:37:13.060Z,92.40
2018-09-20T07:39:41.853Z,92.00
2018-09-20T07:42:09.835Z,91.70
2018-09-20T07:44:37.807Z,91.80
2018-09-20T07:47:05.837Z,92.00
2018-09-20T07:49:33.797Z,91.50
2018-09-20T07:52:01.875Z,91.60
2018-09-20T07:54:30.061Z,91.60
2018-09-20T07:56:58.055Z,91.40
2018-09-20T07:59:26.032Z,91.50
2018-09-20T08:01:54.003Z,91.20
2018-09-20T08:04:22.046Z,91.10
2018-09-20T08:06:50.072Z,91.40
2018-09-20T08:09:18.050Z,91.30
2018-09-20T08:11:45.978Z,90.80
2018-09-20T08:14:13.961Z,91.00
2018-09-20T08:16:41.948Z,90.80
2018-09-20T08:19:09.933Z,90.50
2018-09-20T08:21:37.971Z,90.10
2018-09-20T08:24:05.985Z,90.10
2018-09-20T08:26:33.937Z,90.10
2018-09-20T08:29:01.898Z,90.30
2018-09-20T08:31:29.829Z,90.40
2018-09-20T08:33:57.827Z,90.10
2018-09-20T08:36:25.985Z,90.00
2018-09-20T08:38:53.949Z,90.20
2018-09-20T08:41:21.869Z,89.30
2018-09-20T08:43:49.898Z,90.00
2018-09-20T08:46:17.851Z,89.90
2018-09-20T08:48:45.835Z,89.70
2018-09-20T08:51:13.921Z,88.90
2018-09-20T08:53:41.877Z,88.20
2018-09-20T08:56:09.805Z,88.20
2018-09-20T08:58:37.786Z,88.40
2018-09-20T09:01:05.801Z,87.90
2018-09-20T09:03:33.882Z,87.60
2018-09-20T09:06:01.912Z,87.50
2018-09-20T09:08:29.874Z,85.20
2018-09-20T09:10:57.933Z,85.90
2018-09-20T09:13:25.980Z,84.80
2018-09-20T09:15:53.999Z,86.00
2018-09-20T09:18:22.428Z,85.90
2018-09-20T09:20:50.449Z,85.40
2018-09-20T09:23:18.361Z,85.10
2018-09-20T09:25:48.416Z,85.40
2018-09-20T09:28:16.407Z,85.30
2018-09-20T09:30:44.368Z,84.10
2018-09-20T09:33:12.304Z,84.80
2018-09-20T09:35:40.315Z,84.50
2018-09-20T09:38:08.209Z,93.50
2018-09-20T09:40:36.133Z,90.20
2018-09-20T09:43:04.137Z,81.90
2018-09-20T09:45:32.109Z,83.30
2018-09-20T09:48:00.159Z,83.20
2018-09-20T09:50:28.145Z,82.70
2018-09-20T09:52:56.177Z,82.60
2018-09-20T09:55:24.074Z,82.20
2018-09-20T09:57:52.245Z,81.50
2018-09-20T10:00:25.633Z,76.50
2018-09-20T10:02:53.630Z,75.30
2018-09-20T10:05:21.622Z,78.20
2018-09-20T10:07:49.572Z,78.30
2018-09-20T10:10:17.484Z,77.20
2018-09-20T10:12:45.470Z,75.60
2018-09-20T10:15:13.446Z,76.10
2018-09-20T10:17:41.505Z,74.20
2018-09-20T10:20:09.457Z,73.40
2018-09-20T10:22:37.384Z,74.70
2018-09-20T10:25:05.361Z,75.70
2018-09-20T10:27:33.320Z,75.80
2018-09-20T10:30:01.475Z,75.80
2018-09-20T10:32:29.845Z,72.80
2018-09-20T10:34:57.748Z,73.60
2018-09-20T10:37:25.721Z,73.90
2018-09-20T10:39:54.665Z,73.30
2018-09-20T10:42:23.329Z,75.10
2018-09-20T10:44:51.293Z,74.90
2018-09-20T10:47:19.368Z,73.30
2018-09-20T10:49:47.506Z,74.00
2018-09-20T10:52:15.479Z,73.40
2018-09-20T10:54:44.070Z,71.80
2018-09-20T10:57:12.103Z,71.40
2018-09-20T10:59:40.138Z,71.30
2018-09-20T11:02:08.095Z,71.00
2018-09-20T11:04:36.067Z,71.50
2018-09-20T11:07:04.141Z,72.00
2018-09-20T11:09:32.150Z,72.00
2018-09-20T11:12:00.125Z,70.30
2018-09-20T11:14:28.211Z,72.20
2018-09-20T11:16:56.082Z,72.20
2018-09-20T11:19:24.055Z,70.50
2018-09-20T11:21:52.022Z,71.30
2018-09-20T11:24:19.921Z,71.30
2018-09-20T11:26:47.894Z,69.70
2018-09-20T11:29:15.877Z,70.10
2018-09-20T11:31:43.890Z,70.30
2018-09-20T11:34:12.010Z,67.60
2018-09-20T11:36:40.641Z,68.60
2018-09-20T11:39:10.949Z,69.70
2018-09-20T11:41:39.170Z,69.70
2018-09-20T11:44:07.268Z,67.20
2018-09-20T11:46:35.380Z,67.60
2018-09-20T11:49:03.343Z,68.00
2018-09-20T11:51:31.466Z,67.10
2018-09-20T11:53:59.509Z,65.20
2018-09-20T11:56:27.512Z,63.10
2018-09-20T11:58:55.445Z,61.90
2018-09-20T12:01:24.535Z,64.10
2018-09-20T12:03:52.682Z,63.80
2018-09-20T12:06:21.117Z,62.80
2018-09-20T12:08:49.119Z,64.20
2018-09-20T12:11:17.059Z,63.80
2018-09-20T12:13:45.013Z,59.00
2018-09-20T12:18:41.286Z,62.30
2018-09-20T12:21:09.265Z,61.80
2018-09-20T12:23:37.333Z,57.40
2018-09-20T12:26:05.411Z,59.60
2018-09-20T12:28:33.394Z,60.80
2018-09-20T12:31:01.328Z,60.50
2018-09-20T12:33:29.377Z,59.90
2018-09-20T12:35:57.492Z,59.30
2018-09-20T12:38:25.615Z,57.90
2018-09-20T12:40:53.990Z,53.50
2018-09-20T12:43:21.927Z,56.40
2018-09-20T12:45:49.954Z,58.20
2018-09-20T12:48:17.963Z,56.00
2018-09-20T12:50:45.912Z,58.20
2018-09-20T12:53:13.901Z,56.40
2018-09-20T12:55:41.967Z,58.10
2018-09-20T12:58:10.503Z,57.50
2018-09-20T13:00:38.467Z,56.60
2018-09-20T13:03:06.478Z,57.50
2018-09-20T13:05:34.654Z,58.10
2018-09-20T13:08:02.666Z,56.50
2018-09-20T13:10:30.658Z,56.90
2018-09-20T13:12:58.545Z,56.50
2018-09-20T13:15:26.481Z,55.90
2018-09-20T13:17:54.466Z,56.40
2018-09-20T13:20:22.512Z,55.70
2018-09-20T13:22:50.466Z,55.50
2018-09-20T13:25:18.510Z,56.10
2018-09-20T13:27:46.497Z,56.60
2018-09-20T13:30:14.559Z,55.00
2018-09-20T13:32:42.574Z,53.20
2018-09-20T13:35:10.569Z,54.00
2018-09-20T13:37:38.554Z,52.90
2018-09-20T13:40:06.637Z,52.20
2018-09-20T13:42:34.633Z,52.00
2018-09-20T13:45:02.626Z,51.40
2018-09-20T13:47:30.587Z,50.30
2018-09-20T13:49:58.521Z,49.70
2018-09-20T13:52:26.498Z,48.80
2018-09-20T16:25:16.546Z,39.70
2018-09-20T16:27:44.568Z,40.10
2018-09-20T16:30:36.646Z,40.70
2018-09-20T16:33:19.024Z,40.90
2018-09-20T16:35:59.894Z,40.90
2018-09-20T16:38:43.701Z,41.00
2018-09-20T16:41:14.823Z,41.20
2018-09-20T16:43:42.849Z,41.20
2018-09-20T16:46:17.289Z,41.60
2018-09-20T16:48:45.322Z,41.80
2018-09-20T16:51:13.294Z,42.50
2018-09-20T19:09:25.484Z,67.30
2018-09-20T19:11:53.526Z,67.40
2018-09-20T19:14:21.536Z,67.40
2018-09-20T19:16:49.533Z,68.60
2018-09-20T19:19:17.466Z,69.20
2018-09-20T19:21:45.513Z,69.70
2018-09-20T19:24:13.495Z,69.10
2018-09-20T19:26:41.523Z,69.50
2018-09-20T19:29:09.526Z,68.50
2018-09-20T19:31:37.522Z,70.20
2018-09-20T19:34:05.637Z,69.60
2018-09-20T19:36:33.636Z,70.70
2018-09-20T19:39:01.592Z,69.80
2018-09-20T19:41:29.521Z,68.80
2018-09-20T19:43:57.562Z,69.30
2018-09-20T19:46:25.510Z,69.40
2018-09-20T19:48:53.483Z,71.70
2018-09-20T19:51:21.471Z,72.90
2018-09-20T19:53:49.493Z,71.40
2018-09-20T19:56:17.461Z,71.40
2018-09-20T19:58:45.401Z,70.60
2018-09-20T20:01:13.436Z,70.70
2018-09-20T20:03:41.796Z,70.40
2018-09-20T20:06:09.833Z,70.60
2018-09-20T20:08:37.787Z,68.60
2018-09-20T20:11:05.833Z,69.40
2018-09-20T20:13:33.797Z,68.60
2018-09-20T20:16:01.757Z,69.20
2018-09-20T20:18:29.762Z,71.80
2018-09-20T20:20:57.878Z,72.60
2018-09-20T20:23:25.819Z,72.30
2018-09-20T20:25:53.799Z,72.50
2018-09-20T20:28:21.782Z,72.50
2018-09-20T20:30:49.861Z,75.10
2018-09-20T20:33:17.748Z,74.60
2018-09-20T20:35:45.710Z,74.80
2018-09-20T20:38:13.724Z,73.00
2018-09-20T20:40:41.725Z,72.80
2018-09-20T20:43:09.730Z,73.50
2018-09-20T20:45:37.678Z,75.90
2018-09-20T20:48:05.745Z,75.20
2018-09-20T20:50:33.741Z,76.40
2018-09-20T20:53:01.689Z,75.70
2018-09-20T20:55:29.646Z,78.00
2018-09-20T20:57:57.602Z,76.40
2018-09-20T21:00:25.562Z,78.70
2018-09-20T21:02:53.628Z,75.60
2018-09-20T21:07:49.525Z,79.90
2018-09-20T21:10:17.498Z,81.40
2018-09-20T21:12:45.450Z,81.10
2018-09-20T21:15:13.391Z,79.70
2018-09-20T21:17:41.309Z,80.60
2018-09-20T21:20:09.358Z,80.90
2018-09-20T21:22:37.353Z,80.80
2018-09-20T21:25:05.392Z,81.10
2018-09-20T21:27:33.439Z,81.50
2018-09-20T21:30:01.513Z,81.80
2018-09-20T21:32:30.129Z,82.20
2018-09-20T21:34:58.067Z,84.90
2018-09-20T21:37:26.135Z,85.30
2018-09-20T21:39:54.170Z,83.20
2018-09-20T21:42:22.192Z,84.70
2018-09-20T21:44:50.634Z,83.60
2018-09-20T21:47:18.617Z,85.20
2018-09-20T21:49:46.597Z,84.10
2018-09-20T21:52:14.634Z,85.90
2018-09-20T21:54:43.200Z,83.50
2018-09-20T21:57:11.263Z,82.90
2018-09-20T21:59:39.274Z,83.00
2018-09-20T22:02:07.980Z,84.00
2018-09-20T22:04:36.017Z,85.90
2018-09-20T22:07:04.042Z,84.70
2018-09-20T22:09:32.046Z,84.30
2018-09-20T22:12:00.109Z,85.60
2018-09-20T22:14:28.118Z,86.40
2018-09-20T22:16:56.933Z,87.60
2018-09-20T22:19:24.915Z,87.10
2018-09-20T22:21:52.868Z,87.60
2018-09-20T22:24:20.907Z,87.50
2018-09-20T22:26:49.818Z,88.10
2018-09-20T22:29:18.287Z,88.20
2018-09-20T22:31:46.269Z,89.10
2018-09-20T22:34:14.432Z,89.00
2018-09-20T22:36:43.146Z,89.00
2018-09-20T22:39:11.685Z,89.20
2018-09-20T22:41:39.801Z,88.70
2018-09-20T22:44:07.965Z,88.00
2018-09-20T22:46:35.975Z,88.10
2018-09-20T22:49:03.969Z,88.20
2018-09-20T22:51:31.898Z,88.20
2018-09-20T22:53:59.829Z,89.10
2018-09-20T22:56:27.773Z,90.60
2018-09-20T22:58:55.683Z,90.60
2018-09-20T23:01:23.555Z,91.00
2018-09-20T23:03:51.480Z,88.70
2018-09-20T23:06:19.437Z,90.70
2018-09-20T23:08:47.293Z,90.80
2018-09-20T23:11:15.202Z,91.10
2018-09-20T23:13:43.092Z,90.90
2018-09-20T23:16:10.968Z,90.30
2018-09-20T23:18:38.897Z,90.20
2018-09-20T23:21:06.848Z,89.40
2018-09-20T23:23:34.805Z,90.60
2018-09-20T23:26:02.719Z,90.20
2018-09-20T23:28:30.624Z,89.70
2018-09-20T23:30:58.545Z,87.60
2018-09-20T23:33:26.412Z,87.30
2018-09-20T23:35:54.322Z,88.60
2018-09-20T23:38:22.201Z,90.50
2018-09-20T23:40:50.137Z,91.10
2018-09-20T23:43:18.063Z,91.50
2018-09-20T23:45:46.001Z,91.50
2018-09-20T23:48:13.903Z,91.80
2018-09-20T23:50:41.817Z,91.80
2018-09-20T23:53:09.729Z,91.40
2018-09-20T23:55:37.645Z,92.10
2018-09-20T23:58:05.681Z,92.00
